Time;durP1;ratioP1;P1;durP2;ratioP2;P2;SDS_P1;SDS_P2;PMS_P1;PMS_P2;Temp;Humidity;BMP_temperature;BMP_pressure;BME280_temperature;BME280_humidity;BME280_pressure;Samples;Min_cycle;Max_cycle;Signal;HPM_P1;HPM_P2
2024/02/03 00:00:30;;;;;;;26.75;16.55;;;;;;;-146.25;100.00;52597.31;2095956;28;21537;-65
2024/02/03 00:01:32;;;;;;;22.20;15.95;;;;;;;-146.25;100.00;52587.19;2096132;28;20662;-65
2024/02/03 00:02:36;;;;;;;25.80;16.85;;;;;;;-146.25;100.00;52621.66;2096170;28;20134;-65
2024/02/03 00:03:38;;;;;;;25.58;16.23;;;;;;;-146.25;100.00;52589.22;2095906;28;23727;-64
2024/02/03 00:04:40;;;;;;;25.10;17.02;;;;;;;-146.25;100.00;52573.00;2095988;28;23566;-64
2024/02/03 00:05:43;;;;;;;23.13;15.82;;;;;;;-146.25;100.00;52566.91;2095892;28;23253;-65
2024/02/03 00:06:45;;;;;;;22.85;16.95;;;;;;;-146.25;100.00;52573.00;2096166;28;22776;-65
2024/02/03 00:07:47;;;;;;;24.10;15.63;;;;;;;-146.25;100.00;52583.13;2087461;28;21390;-65
2024/02/03 00:08:49;;;;;;;26.42;16.88;;;;;;;-146.25;100.00;52558.78;2087190;28;24311;-64
2024/02/03 00:09:51;;;;;;;27.17;16.73;;;;;;;-146.25;100.00;52554.75;2096425;28;25276;-64
2024/02/03 00:10:53;;;;;;;26.13;16.17;;;;;;;-146.25;100.00;52562.84;2096694;28;20040;-65
2024/02/03 00:11:55;;;;;;;23.75;16.58;;;;;;;-146.25;100.00;52623.69;2096490;28;20045;-64
2024/02/03 00:12:57;;;;;;;25.45;16.55;;;;;;;-146.25;100.00;52597.31;2089091;28;20855;-65
2024/02/03 00:13:59;;;;;;;23.65;16.98;;;;;;;-146.25;100.00;52581.09;2088991;28;20160;-64
2024/02/03 00:15:01;;;;;;;30.20;17.02;;;;;;;-146.25;100.00;52583.13;2097713;28;20048;-64
2024/02/03 00:16:05;;;;;;;25.80;17.27;;;;;;;-146.25;100.00;52570.97;2098316;28;20942;-63
2024/02/03 00:17:07;;;;;;;29.05;17.83;;;;;;;-146.25;100.00;52573.00;2088689;28;20037;-64
2024/02/03 00:18:09;;;;;;;25.08;16.50;;;;;;;-146.25;100.00;52570.97;2089177;28;20130;-64
2024/02/03 00:19:11;;;;;;;27.10;17.48;;;;;;;-146.25;100.00;52570.97;2097916;28;20037;-64
2024/02/03 00:20:14;;;;;;;26.88;18.00;;;;;;;-146.25;100.00;52597.31;2097626;28;20037;-64
2024/02/03 00:21:18;;;;;;;26.48;16.83;;;;;;;-146.25;100.00;52599.34;2097911;28;20036;-64
2024/02/03 00:22:21;;;;;;;24.60;17.70;;;;;;;-146.25;100.00;52595.28;2097956;28;20099;-64
2024/02/03 00:23:22;;;;;;;29.60;17.42;;;;;;;-146.25;100.00;52566.91;2097807;28;20045;-65
2024/02/03 00:24:27;;;;;;;28.40;18.13;;;;;;;-146.25;100.00;52575.00;2097437;28;20930;-63
2024/02/03 00:25:29;;;;;;;28.73;18.10;;;;;;;-146.25;100.00;52601.38;2097136;28;21889;-64
2024/02/03 00:26:30;;;;;;;22.58;17.17;;;;;;;-146.25;100.00;52575.00;2097838;28;20130;-64
2024/02/03 00:27:32;;;;;;;25.80;17.88;;;;;;;-146.25;100.00;52607.47;2097659;28;20041;-64
2024/02/03 00:28:34;;;;;;;29.58;18.55;;;;;;;-146.25;100.00;52542.56;2097269;28;20122;-63
2024/02/03 00:29:36;;;;;;;25.50;16.73;;;;;;;-146.25;100.00;52595.28;2097960;28;20130;-65
2024/02/03 00:30:40;;;;;;;28.15;17.75;;;;;;;-146.25;100.00;52583.13;2097283;28;22288;-64
2024/02/03 00:31:42;;;;;;;28.33;17.23;;;;;;;-146.25;100.00;52573.00;2097866;28;20154;-62
2024/02/03 00:32:44;;;;;;;28.10;17.95;;;;;;;-146.25;100.00;52548.66;2097576;28;25702;-64
2024/02/03 00:33:46;;;;;;;25.63;17.92;;;;;;;-146.25;100.00;52579.06;2097404;28;24032;-64
2024/02/03 00:34:48;;;;;;;23.80;17.33;;;;;;;-146.25;100.00;52587.19;2097543;28;20041;-63
2024/02/03 00:35:50;;;;;;;27.73;17.35;;;;;;;-146.25;100.00;52581.09;2097264;28;20052;-65
2024/02/03 00:36:52;;;;;;;26.00;17.50;;;;;;;-146.25;100.00;52595.28;2088676;28;23461;-64
2024/02/03 00:37:54;;;;;;;28.08;18.02;;;;;;;-146.25;100.00;52603.41;2088503;28;21787;-64
2024/02/03 00:38:58;;;;;;;23.10;17.45;;;;;;;-146.25;100.00;52609.50;2097698;28;22891;-63
2024/02/03 00:40:03;;;;;;;30.58;18.70;;;;;;;-146.25;100.00;52585.16;2097900;28;20130;-64
2024/02/03 00:41:05;;;;;;;27.88;18.45;;;;;;;-146.25;100.00;52623.69;2087649;28;23469;-65
2024/02/03 00:42:07;;;;;;;33.75;19.15;;;;;;;-146.25;100.00;52589.22;2089287;28;20042;-64
2024/02/03 00:43:09;;;;;;;28.85;18.13;;;;;;;-146.25;100.00;52603.41;2097396;28;20053;-64
2024/02/03 00:44:11;;;;;;;30.63;18.60;;;;;;;-146.25;100.00;52603.41;2097518;28;27503;-64
2024/02/03 00:45:13;;;;;;;25.85;17.83;;;;;;;-146.25;100.00;52566.91;2097138;28;20037;-64
2024/02/03 00:46:15;;;;;;;24.13;17.33;;;;;;;-146.25;100.00;52577.03;2097706;28;20041;-63
2024/02/03 00:47:17;;;;;;;29.95;17.55;;;;;;;-146.25;100.00;52613.53;2097573;28;24101;-63
2024/02/03 00:48:19;;;;;;;24.90;17.50;;;;;;;-146.25;100.00;52595.28;2097418;28;22010;-64
2024/02/03 00:49:26;;;;;;;27.23;17.70;;;;;;;-146.25;100.00;52583.13;2097132;28;20167;-64
2024/02/03 00:50:28;;;;;;;26.05;17.77;;;;;;;-146.25;100.00;52583.13;2097286;28;22501;-64
2024/02/03 00:51:30;;;;;;;24.08;16.92;;;;;;;-146.25;100.00;52583.13;2097098;28;20289;-63
2024/02/03 00:52:32;;;;;;;25.10;17.40;;;;;;;-146.25;100.00;52597.31;2097805;28;20045;-64
2024/02/03 00:53:33;;;;;;;26.60;16.60;;;;;;;-146.25;100.00;52603.41;2097150;28;25072;-65
2024/02/03 00:54:37;;;;;;;24.13;16.85;;;;;;;-146.25;100.00;52573.00;2096768;28;22211;-64
2024/02/03 00:55:39;;;;;;;25.33;17.33;;;;;;;-146.25;100.00;52564.88;2097780;28;20682;-65
2024/02/03 00:56:41;;;;;;;26.23;17.35;;;;;;;-146.25;100.00;52617.59;2097682;28;23374;-64
2024/02/03 00:57:43;;;;;;;28.42;17.92;;;;;;;-146.25;100.00;52587.19;2097114;28;25832;-64
2024/02/03 00:58:45;;;;;;;28.05;18.00;;;;;;;-146.25;100.00;52564.88;2097256;28;21009;-64
2024/02/03 00:59:49;;;;;;;30.88;18.30;;;;;;;-146.25;100.00;52579.06;2097383;28;20041;-63
2024/02/03 01:00:51;;;;;;;28.75;17.48;;;;;;;-146.25;100.00;52587.19;2096920;28;24548;-64
2024/02/03 01:01:55;;;;;;;27.10;17.52;;;;;;;-146.25;100.00;52599.34;2097526;28;20029;-64
2024/02/03 01:02:57;;;;;;;26.52;18.30;;;;;;;-146.25;100.00;52591.25;2097210;28;26506;-64
2024/02/03 01:03:59;;;;;;;24.63;18.08;;;;;;;-146.25;100.00;52656.13;2097287;28;20995;-64
2024/02/03 01:05:01;;;;;;;25.10;18.42;;;;;;;-146.25;100.00;52589.22;2097312;28;21786;-64
2024/02/03 01:06:04;;;;;;;30.63;17.70;;;;;;;-146.25;100.00;52591.25;2097166;28;25246;-66
2024/02/03 01:07:06;;;;;;;25.20;18.50;;;;;;;-146.25;100.00;52566.91;2088643;28;20871;-65
2024/02/03 01:08:08;;;;;;;25.88;17.92;;;;;;;-146.25;100.00;52583.13;2088691;28;21216;-64
2024/02/03 01:09:17;;;;;;;30.45;18.65;;;;;;;-146.25;100.00;52599.34;2097464;28;20033;-65
2024/02/03 01:10:19;;;;;;;27.13;18.98;;;;;;;-146.25;100.00;52613.53;2096828;28;22504;-64
2024/02/03 01:11:21;;;;;;;31.27;19.38;;;;;;;-146.25;100.00;52581.09;2097533;28;21000;-64
2024/02/03 01:12:23;;;;;;;33.22;19.33;;;;;;;-146.25;100.00;52609.50;2088427;28;20034;-65
2024/02/03 01:13:25;;;;;;;29.27;19.40;;;;;;;-146.25;100.00;52583.13;2088335;28;20037;-64
2024/02/03 01:14:29;;;;;;;31.45;19.98;;;;;;;-146.25;100.00;52566.91;2097661;28;20048;-65
2024/02/03 01:15:32;;;;;;;30.75;20.08;;;;;;;-146.25;100.00;52615.56;2088077;28;20858;-63
2024/02/03 01:16:34;;;;;;;34.80;20.65;;;;;;;-146.25;100.00;52575.00;2088805;28;20828;-64
2024/02/03 01:17:36;;;;;;;27.17;19.25;;;;;;;-146.25;100.00;52591.25;2097776;28;20041;-64
2024/02/03 01:18:38;;;;;;;34.22;21.00;;;;;;;-146.25;100.00;52597.31;2097560;28;20037;-63
2024/02/03 01:19:40;;;;;;;36.17;21.10;;;;;;;-146.25;100.00;52570.97;2097322;28;20041;-64
2024/02/03 01:20:42;;;;;;;30.30;20.77;;;;;;;-146.25;100.00;52544.59;2097545;28;20343;-64
2024/02/03 01:21:44;;;;;;;32.22;21.73;;;;;;;-146.25;100.00;52603.41;2097347;28;20080;-64
2024/02/03 01:22:45;;;;;;;32.53;21.35;;;;;;;-146.25;100.00;52558.78;2096580;28;20045;-65
2024/02/03 01:23:47;;;;;;;36.10;21.27;;;;;;;-146.25;100.00;52601.38;2097153;28;22366;-65
2024/02/03 01:24:49;;;;;;;32.35;21.30;;;;;;;-146.25;100.00;52566.91;2096836;28;21127;-63
2024/02/03 01:25:53;;;;;;;33.38;19.92;;;;;;;-146.25;100.00;52575.00;2096813;28;25612;-63
2024/02/03 01:26:55;;;;;;;33.92;21.60;;;;;;;-146.25;100.00;52605.44;2096955;28;20033;-63
2024/02/03 01:27:57;;;;;;;32.13;21.30;;;;;;;-146.25;100.00;52562.84;2097442;28;23794;-63
2024/02/03 01:28:58;;;;;;;35.50;20.85;;;;;;;-146.25;100.00;52587.19;2097270;28;20041;-64
2024/02/03 01:30:00;;;;;;;32.75;20.73;;;;;;;-146.25;100.00;52562.84;2096721;28;20188;-65
2024/02/03 01:31:04;;;;;;;34.92;21.15;;;;;;;-146.25;100.00;52575.00;2096977;28;23726;-64
2024/02/03 01:32:07;;;;;;;31.08;20.38;;;;;;;-146.25;100.00;52621.66;2097002;28;23401;-64
2024/02/03 01:33:08;;;;;;;33.30;20.88;;;;;;;-146.25;100.00;52577.03;2096888;28;20417;-63
2024/02/03 01:34:10;;;;;;;33.90;19.80;;;;;;;-146.25;100.00;52564.88;2096636;28;24435;-63
2024/02/03 01:35:12;;;;;;;32.03;20.33;;;;;;;-146.25;100.00;52585.16;2097858;28;20142;-63
2024/02/03 01:36:14;;;;;;;34.08;21.40;;;;;;;-146.25;100.00;52601.38;2096909;28;24033;-63
2024/02/03 01:37:16;;;;;;;31.40;20.55;;;;;;;-146.25;100.00;52583.13;2096654;28;24464;-63
2024/02/03 01:38:17;;;;;;;30.45;20.50;;;;;;;-146.25;100.00;52562.84;2097196;28;20420;-63
2024/02/03 01:39:21;;;;;;;32.50;20.48;;;;;;;-146.25;100.00;52593.25;2097473;28;20037;-64
2024/02/03 01:40:28;;;;;;;34.78;20.20;;;;;;;-146.25;100.00;52573.00;2097019;28;20110;-63
2024/02/03 01:41:31;;;;;;;33.40;20.00;;;;;;;-146.25;100.00;52589.22;2097252;28;20029;-64
2024/02/03 01:42:33;;;;;;;34.75;19.92;;;;;;;-146.25;100.00;52570.97;2097064;28;20915;-64
2024/02/03 01:43:34;;;;;;;35.03;20.08;;;;;;;-146.25;100.00;52587.19;2097020;28;20045;-64
2024/02/03 01:44:36;;;;;;;31.20;19.05;;;;;;;-146.25;100.00;52591.25;2087740;28;26350;-64
2024/02/03 01:45:41;;;;;;;35.55;20.05;;;;;;;-146.25;100.00;52581.09;2087880;28;20771;-64
2024/02/03 01:46:44;;;;;;;30.15;18.80;;;;;;;-146.25;100.00;52599.34;2097261;28;21064;-63
2024/02/03 01:47:48;;;;;;;32.03;19.20;;;;;;;-146.25;100.00;52589.22;2088056;28;26235;-63
2024/02/03 01:49:17;;;;;;;27.73;18.67;;;;;;;-146.25;100.00;52577.03;2088470;28;24021;-63
2024/02/03 01:50:31;;;;;;;30.20;18.98;;;;;;;-146.25;100.00;52587.19;2097052;28;21559;-64
2024/02/03 01:51:35;;;;;;;30.83;18.58;;;;;;;-146.25;100.00;52575.00;2087773;28;26005;-64
2024/02/03 01:52:37;;;;;;;28.75;18.67;;;;;;;-146.25;100.00;52560.81;2097500;28;20041;-64
2024/02/03 01:53:41;;;;;;;26.55;16.83;;;;;;;-146.25;100.00;52581.09;2096214;28;21155;-64
2024/02/03 01:54:45;;;;;;;32.05;19.10;;;;;;;-146.25;100.00;52603.41;2080112;28;24853;-64
2024/02/03 01:55:48;;;;;;;27.90;17.90;;;;;;;-146.25;100.00;52593.25;2088633;28;20647;-64
2024/02/03 01:56:55;;;;;;;28.92;18.05;;;;;;;-146.25;100.00;52619.63;2087550;28;23839;-64
2024/02/03 01:58:01;;;;;;;32.33;18.33;;;;;;;-146.25;100.00;52603.41;2097754;28;20274;-65
2024/02/03 01:59:03;;;;;;;27.75;18.75;;;;;;;-146.25;100.00;52599.34;2095227;28;20040;-63
2024/02/03 02:00:06;;;;;;;29.02;17.20;;;;;;;-146.25;100.00;52589.22;2087962;28;24366;-64
2024/02/03 02:01:11;;;;;;;27.23;17.10;;;;;;;-146.25;100.00;52603.41;2096849;28;20040;-63
2024/02/03 02:02:13;;;;;;;31.20;18.20;;;;;;;-146.25;100.00;52625.72;2087885;28;22000;-65
2024/02/03 02:03:17;;;;;;;28.83;17.83;;;;;;;-146.25;100.00;52597.31;2088531;28;20041;-64
2024/02/03 02:04:23;;;;;;;26.52;16.95;;;;;;;-146.25;100.00;52587.19;2096846;28;20399;-64
2024/02/03 02:05:28;;;;;;;25.17;16.65;;;;;;;-146.25;100.00;52593.25;2096625;28;22535;-64
2024/02/03 02:06:30;;;;;;;25.45;16.75;;;;;;;-146.25;100.00;52585.16;2087622;28;20628;-66
2024/02/03 02:07:32;;;;;;;26.38;17.27;;;;;;;-146.25;100.00;52591.25;2088579;28;23317;-65
2024/02/03 02:08:38;;;;;;;28.15;17.48;;;;;;;-146.25;100.00;52593.25;2097076;28;20095;-65
2024/02/03 02:09:40;;;;;;;24.55;17.20;;;;;;;-146.25;100.00;52605.44;2096588;28;20950;-65
2024/02/03 02:10:42;;;;;;;25.52;16.35;;;;;;;-146.25;100.00;52568.94;2097048;28;20037;-66
2024/02/03 02:11:44;;;;;;;26.20;16.35;;;;;;;-146.25;100.00;52611.50;2096949;28;20036;-64
2024/02/03 02:12:46;;;;;;;23.67;16.58;;;;;;;-146.25;100.00;52583.13;2096552;28;20867;-64
2024/02/03 02:13:48;;;;;;;29.17;16.75;;;;;;;-146.25;100.00;52562.84;2096934;28;20041;-65
2024/02/03 02:14:50;;;;;;;27.75;16.70;;;;;;;-146.25;100.00;52591.25;2096675;28;20053;-64
2024/02/03 02:15:52;;;;;;;22.63;15.63;;;;;;;-146.25;100.00;52609.50;2096891;28;20920;-64
2024/02/03 02:16:57;;;;;;;22.92;15.55;;;;;;;-146.25;100.00;52591.25;2096948;28;21041;-64
2024/02/03 02:18:01;;;;;;;28.85;17.17;;;;;;;-146.25;100.00;52629.75;2096988;28;20060;-64
2024/02/03 02:19:03;;;;;;;28.05;16.17;;;;;;;-146.25;100.00;52562.84;2097163;28;20041;-64
2024/02/03 02:20:09;;;;;;;24.08;15.45;;;;;;;-146.25;100.00;52566.91;2096689;28;20083;-64
2024/02/03 02:21:12;;;;;;;22.92;16.15;;;;;;;-146.25;100.00;52573.00;2096980;28;20044;-65
2024/02/03 02:22:14;;;;;;;27.73;15.93;;;;;;;-146.25;100.00;52585.16;2096756;28;20220;-64
2024/02/03 02:23:16;;;;;;;24.02;15.85;;;;;;;-146.25;100.00;52575.00;2096309;28;20969;-64
2024/02/03 02:24:18;;;;;;;21.52;15.00;;;;;;;-146.25;100.00;52597.31;2097152;28;20041;-64
2024/02/03 02:25:20;;;;;;;24.30;16.17;;;;;;;-146.25;100.00;52570.97;2097085;28;20183;-64
2024/02/03 02:26:22;;;;;;;23.25;15.45;;;;;;;-146.25;100.00;52599.34;2097095;28;20037;-64
2024/02/03 02:27:24;;;;;;;28.05;15.88;;;;;;;-146.25;100.00;52583.13;2096621;28;23186;-64
2024/02/03 02:28:26;;;;;;;23.70;15.57;;;;;;;-146.25;100.00;52599.34;2096186;28;25302;-64
2024/02/03 02:29:28;;;;;;;25.00;15.07;;;;;;;-146.25;100.00;52583.13;2096895;28;20549;-64
2024/02/03 02:30:29;;;;;;;21.25;15.10;;;;;;;-146.25;100.00;52607.47;2096433;28;20040;-64
2024/02/03 02:31:31;;;;;;;24.30;14.65;;;;;;;-146.25;100.00;52603.41;2096615;28;20037;-65
2024/02/03 02:32:33;;;;;;;25.10;14.50;;;;;;;-146.25;100.00;52601.38;2096762;28;21255;-65
2024/02/03 02:33:35;;;;;;;22.95;14.82;;;;;;;-146.25;100.00;52607.47;2096461;28;20053;-64
2024/02/03 02:34:38;;;;;;;21.08;14.02;;;;;;;-146.25;100.00;52585.16;2095990;28;21687;-65
2024/02/03 02:35:41;;;;;;;23.67;14.25;;;;;;;-146.25;100.00;52603.41;2096372;28;20044;-64
2024/02/03 02:36:44;;;;;;;21.73;13.70;;;;;;;-146.25;100.00;52609.50;2096885;28;20041;-64
2024/02/03 02:37:46;;;;;;;27.02;14.88;;;;;;;-146.25;100.00;52601.38;2087299;28;23328;-65
2024/02/03 02:38:47;;;;;;;23.25;13.75;;;;;;;-146.25;100.00;52611.50;2088063;28;20881;-66
2024/02/03 02:39:49;;;;;;;21.92;14.45;;;;;;;-146.25;100.00;52560.81;2096571;28;20382;-63
2024/02/03 02:40:51;;;;;;;22.35;14.55;;;;;;;-146.25;100.00;52589.22;2096076;28;20127;-65
2024/02/03 02:41:53;;;;;;;23.48;13.13;;;;;;;-146.25;100.00;52607.47;2096778;28;20052;-65
2024/02/03 02:42:55;;;;;;;20.88;13.70;;;;;;;-146.25;100.00;52591.25;2096475;28;20110;-64
2024/02/03 02:43:57;;;;;;;21.30;13.60;;;;;;;-146.25;100.00;52589.22;2096747;28;21858;-66
2024/02/03 02:45:01;;;;;;;19.58;12.85;;;;;;;-146.25;100.00;52623.69;2096426;28;24244;-63
2024/02/03 02:46:04;;;;;;;18.50;13.35;;;;;;;-146.25;100.00;52577.03;2096483;28;20049;-64
2024/02/03 02:47:07;;;;;;;21.45;13.80;;;;;;;-146.25;100.00;52599.34;2096696;28;24969;-63
2024/02/03 02:48:09;;;;;;;18.70;12.60;;;;;;;-146.25;100.00;52550.69;2096599;28;20041;-64
2024/02/03 02:49:11;;;;;;;21.90;12.43;;;;;;;-146.25;100.00;52597.31;2096210;28;21579;-64
2024/02/03 02:50:12;;;;;;;21.95;12.40;;;;;;;-146.25;100.00;52566.91;2096563;28;21788;-64
2024/02/03 02:51:14;;;;;;;21.35;13.27;;;;;;;-146.25;100.00;52579.06;2096207;28;21522;-64
2024/02/03 02:52:16;;;;;;;23.48;13.38;;;;;;;-146.25;100.00;52595.28;2096695;28;20052;-64
2024/02/03 02:53:18;;;;;;;18.98;13.13;;;;;;;-146.25;100.00;52579.06;2096659;28;22770;-64
2024/02/03 02:54:20;;;;;;;20.00;12.18;;;;;;;-146.25;100.00;52609.50;2096465;28;20840;-64
2024/02/03 02:55:22;;;;;;;18.45;12.38;;;;;;;-146.25;100.00;52595.28;2097129;28;22763;-63
2024/02/03 02:56:24;;;;;;;19.30;12.20;;;;;;;-146.25;100.00;52603.41;2096630;28;20172;-64
2024/02/03 02:57:26;;;;;;;17.50;12.07;;;;;;;-146.25;100.00;52643.97;2096176;28;20874;-63
2024/02/03 02:58:28;;;;;;;22.60;12.45;;;;;;;-146.25;100.00;52544.59;2096620;28;22414;-64
2024/02/03 02:59:29;;;;;;;19.77;12.57;;;;;;;-146.25;100.00;52617.59;2096326;28;20171;-64
2024/02/03 03:00:33;;;;;;;19.67;11.68;;;;;;;-146.25;100.00;52589.22;2095782;28;20962;-64
2024/02/03 03:01:35;;;;;;;18.48;11.30;;;;;;;-146.25;100.00;52589.22;2096051;28;23053;-65
2024/02/03 03:02:37;;;;;;;19.77;11.88;;;;;;;-146.25;100.00;52564.88;2096703;28;21249;-64
2024/02/03 03:03:39;;;;;;;19.35;11.82;;;;;;;-146.25;100.00;52609.50;2096277;28;23015;-64
2024/02/03 03:04:41;;;;;;;16.10;11.45;;;;;;;-146.25;100.00;52589.22;2096095;28;23313;-64
2024/02/03 03:05:43;;;;;;;17.15;11.52;;;;;;;-146.25;100.00;52583.13;2096507;28;20056;-64
2024/02/03 03:06:45;;;;;;;20.25;11.60;;;;;;;-146.25;100.00;52570.97;2095524;28;24618;-64
2024/02/03 03:07:46;;;;;;;18.83;11.75;;;;;;;-146.25;100.00;52577.03;2095487;28;29449;-64
2024/02/03 03:08:48;;;;;;;16.45;10.60;;;;;;;-146.25;100.00;52579.06;2096265;28;28057;-64
2024/02/03 03:09:50;;;;;;;18.63;11.15;;;;;;;-146.25;100.00;52603.41;2096314;28;28137;-64
2024/02/03 03:10:52;;;;;;;18.05;10.50;;;;;;;-146.25;100.00;52625.72;2091399;28;20054;-63
2024/02/03 03:11:54;;;;;;;16.55;10.77;;;;;;;-146.25;100.00;52617.59;2087632;28;20034;-63
2024/02/03 03:12:58;;;;;;;20.15;11.40;;;;;;;-146.25;100.00;52585.16;2088166;28;20108;-64
2024/02/03 03:14:00;;;;;;;17.30;10.65;;;;;;;-146.25;100.00;52603.41;2079037;28;22407;-65
2024/02/03 03:15:02;;;;;;;21.88;10.88;;;;;;;-146.25;100.00;52583.13;2080244;28;20046;-65
2024/02/03 03:16:07;;;;;;;13.98;9.88;;;;;;;-146.25;100.00;52599.34;2078656;28;20164;-66
2024/02/03 03:17:09;;;;;;;14.45;10.57;;;;;;;-146.25;100.00;52595.28;2079482;28;21429;-66
2024/02/03 03:18:11;;;;;;;20.38;10.93;;;;;;;-146.25;100.00;52613.53;2087875;28;20038;-63
2024/02/03 03:19:13;;;;;;;20.63;10.50;;;;;;;-146.25;100.00;52615.56;2087981;28;20119;-64
2024/02/03 03:20:15;;;;;;;12.43;9.82;;;;;;;-146.25;100.00;52601.38;2087652;28;26316;-64
2024/02/03 03:21:17;;;;;;;17.17;10.57;;;;;;;-146.25;100.00;52603.41;2088444;28;21035;-64
2024/02/03 03:22:19;;;;;;;16.85;10.45;;;;;;;-146.25;100.00;52597.31;2087667;28;32145;-64
2024/02/03 03:23:21;;;;;;;14.23;10.25;;;;;;;-146.25;100.00;52605.44;2087527;28;30663;-64
2024/02/03 03:24:22;;;;;;;17.80;10.43;;;;;;;-146.25;100.00;52558.78;2087659;28;35257;-64
2024/02/03 03:25:25;;;;;;;15.15;10.23;;;;;;;-146.25;100.00;52587.19;2087329;28;35545;-65
2024/02/03 03:26:26;;;;;;;14.77;10.05;;;;;;;-146.25;100.00;52587.19;2087552;28;34577;-64
2024/02/03 03:27:28;;;;;;;16.80;10.02;;;;;;;-146.25;100.00;52562.84;2087551;28;34081;-64
2024/02/03 03:28:30;;;;;;;17.98;10.40;;;;;;;-146.25;100.00;52593.25;2087269;28;35107;-65
2024/02/03 03:29:32;;;;;;;18.48;9.45;;;;;;;-146.25;100.00;52599.34;2087629;28;35599;-64
2024/02/03 03:30:33;;;;;;;14.55;9.65;;;;;;;-146.25;100.00;52577.03;2087341;28;33970;-65
2024/02/03 03:31:38;;;;;;;17.83;9.95;;;;;;;-146.25;100.00;52627.75;2087618;28;33860;-64
2024/02/03 03:32:41;;;;;;;15.07;9.60;;;;;;;-146.25;100.00;52560.81;2087224;28;35639;-64
2024/02/03 03:33:44;;;;;;;13.63;8.93;;;;;;;-146.25;100.00;52570.97;2087799;28;20088;-64
2024/02/03 03:34:48;;;;;;;19.55;10.40;;;;;;;-146.25;100.00;52566.91;2086802;28;35681;-64
2024/02/03 03:35:52;;;;;;;15.82;10.07;;;;;;;-146.25;100.00;52609.50;2087699;28;20976;-64
2024/02/03 03:36:54;;;;;;;16.40;9.65;;;;;;;-146.25;100.00;52591.25;2087300;28;34202;-64
2024/02/03 03:37:57;;;;;;;16.13;9.32;;;;;;;-146.25;100.00;52562.84;2087335;28;32928;-64
2024/02/03 03:39:01;;;;;;;14.23;9.25;;;;;;;-146.25;100.00;52595.28;2087623;28;35506;-65
2024/02/03 03:40:04;;;;;;;15.05;9.23;;;;;;;-146.25;100.00;52603.41;2087517;28;33930;-64
2024/02/03 03:41:11;;;;;;;14.13;9.52;;;;;;;-146.25;100.00;52595.28;2087907;28;20042;-64
2024/02/03 03:42:13;;;;;;;17.27;9.15;;;;;;;-146.25;100.00;52587.19;2087710;28;33987;-64
2024/02/03 03:43:15;;;;;;;14.70;9.27;;;;;;;-146.25;100.00;52575.00;2087270;28;35806;-65
2024/02/03 03:44:19;;;;;;;16.88;8.95;;;;;;;-146.25;100.00;52591.25;2079344;28;20041;-64
2024/02/03 03:45:21;;;;;;;14.40;8.80;;;;;;;-146.25;100.00;52587.19;2078954;28;34865;-64
2024/02/03 03:46:23;;;;;;;17.23;8.85;;;;;;;-146.25;100.00;52609.50;2088523;28;32192;-63
2024/02/03 03:47:25;;;;;;;16.77;9.05;;;;;;;-146.25;100.00;52579.06;2079844;28;30518;-64
2024/02/03 03:48:26;;;;;;;12.38;8.60;;;;;;;-146.25;100.00;52566.91;2079670;28;36807;-64
2024/02/03 03:49:32;;;;;;;14.13;8.68;;;;;;;-146.25;100.00;52597.31;2088921;28;34754;-64
2024/02/03 03:50:34;;;;;;;15.85;9.20;;;;;;;-146.25;100.00;52562.84;2089735;28;20100;-64
2024/02/03 03:51:36;;;;;;;14.13;8.43;;;;;;;-146.25;100.00;52593.25;2088499;28;37995;-65
2024/02/03 03:52:38;;;;;;;16.27;8.73;;;;;;;-146.25;100.00;52593.25;2089098;28;32435;-64
2024/02/03 03:53:39;;;;;;;15.18;8.73;;;;;;;-146.25;100.00;52558.78;2089237;28;33839;-64
2024/02/03 03:54:43;;;;;;;15.55;8.68;;;;;;;-146.25;100.00;52554.75;2089216;28;20111;-64
2024/02/03 03:55:50;;;;;;;14.93;8.32;;;;;;;-146.25;100.00;52573.00;2089248;28;31546;-64
2024/02/03 03:56:52;;;;;;;17.10;8.73;;;;;;;-146.25;100.00;52558.78;2089024;28;33658;-64
2024/02/03 03:57:54;;;;;;;17.20;8.77;;;;;;;-146.25;100.00;52583.13;2088192;28;32181;-64
2024/02/03 03:58:59;;;;;;;14.65;7.55;;;;;;;-146.25;100.00;52570.97;2088130;28;34427;-64
2024/02/03 04:00:05;;;;;;;13.80;8.15;;;;;;;-146.25;100.00;52583.13;2089221;28;20053;-64
2024/02/03 04:01:12;;;;;;;12.73;7.40;;;;;;;-146.25;100.00;52597.31;2080597;28;20081;-64
2024/02/03 04:02:14;;;;;;;13.93;7.82;;;;;;;-146.25;100.00;52583.13;2081552;28;30077;-64
2024/02/03 04:03:16;;;;;;;13.90;8.18;;;;;;;-146.25;100.00;52550.69;2088563;28;34573;-64
2024/02/03 04:04:20;;;;;;;14.80;8.00;;;;;;;-146.25;100.00;52585.16;2089361;28;20049;-64
2024/02/03 04:05:25;;;;;;;18.95;8.20;;;;;;;-146.25;100.00;52589.22;2088569;28;34977;-64
2024/02/03 04:06:27;;;;;;;14.55;7.88;;;;;;;-146.25;100.00;52566.91;2089796;28;20045;-64
2024/02/03 04:07:31;;;;;;;15.20;8.23;;;;;;;-146.25;100.00;52595.28;2088718;28;35279;-64
2024/02/03 04:08:35;;;;;;;13.10;7.90;;;;;;;-146.25;100.00;52579.06;2088865;28;32291;-63
2024/02/03 04:09:36;;;;;;;12.57;7.53;;;;;;;-146.25;100.00;52599.34;2088652;28;34270;-63
2024/02/03 04:10:38;;;;;;;12.45;7.95;;;;;;;-146.25;100.00;52607.47;2088848;28;32526;-64
2024/02/03 04:11:40;;;;;;;12.35;6.80;;;;;;;-146.25;100.00;52615.56;2089299;28;20932;-65
2024/02/03 04:12:42;;;;;;;14.48;7.50;;;;;;;-146.25;100.00;52611.50;2089072;28;20038;-64
2024/02/03 04:13:45;;;;;;;13.50;7.68;;;;;;;-146.25;100.00;52595.28;2089379;28;20085;-64
2024/02/03 04:14:46;;;;;;;10.68;7.30;;;;;;;-146.25;100.00;52623.69;2089374;28;20040;-63
2024/02/03 04:15:48;;;;;;;13.70;7.28;;;;;;;-146.25;100.00;52609.50;2088766;28;32330;-64
2024/02/03 04:16:50;;;;;;;15.30;7.07;;;;;;;-146.25;100.00;52605.44;2089627;28;20029;-64
2024/02/03 04:17:53;;;;;;;12.88;7.35;;;;;;;-146.25;100.00;52605.44;2089007;28;36797;-64
2024/02/03 04:18:54;;;;;;;15.38;7.15;;;;;;;-146.25;100.00;52617.59;2088701;28;30294;-64
2024/02/03 04:19:56;;;;;;;9.45;6.15;;;;;;;-146.25;100.00;52575.00;2088504;28;26591;-64
2024/02/03 04:20:58;;;;;;;11.57;7.38;;;;;;;-146.25;100.00;52573.00;2088969;28;28378;-65
2024/02/03 04:22:01;;;;;;;15.20;7.35;;;;;;;-146.25;100.00;52591.25;2088671;28;33949;-64
2024/02/03 04:23:03;;;;;;;13.90;7.40;;;;;;;-146.25;100.00;52587.19;2080094;28;33236;-64
2024/02/03 04:24:05;;;;;;;11.10;6.20;;;;;;;-146.25;100.00;52599.34;2080043;28;35948;-64
2024/02/03 04:25:07;;;;;;;12.98;6.95;;;;;;;-146.25;100.00;52570.97;2089161;28;20169;-64
2024/02/03 04:26:09;;;;;;;14.48;7.50;;;;;;;-146.25;100.00;52593.25;2088530;28;35066;-65
2024/02/03 04:27:11;;;;;;;12.82;6.75;;;;;;;-146.25;100.00;52568.94;2088438;28;35016;-64
2024/02/03 04:28:13;;;;;;;12.13;6.50;;;;;;;-146.25;100.00;52568.94;2088939;28;33290;-65
2024/02/03 04:29:15;;;;;;;11.85;6.65;;;;;;;-146.25;100.00;52575.00;2088495;28;34952;-64
2024/02/03 04:30:19;;;;;;;11.65;6.85;;;;;;;-146.25;100.00;52605.44;2089230;28;21017;-64
2024/02/03 04:31:21;;;;;;;17.55;6.88;;;;;;;-146.25;100.00;52579.06;2088087;28;36161;-64
2024/02/03 04:32:23;;;;;;;12.30;6.97;;;;;;;-146.25;100.00;52595.28;2088946;28;33982;-63
2024/02/03 04:33:25;;;;;;;12.18;6.95;;;;;;;-146.25;100.00;52591.25;2088973;28;30929;-61
2024/02/03 04:34:27;;;;;;;13.48;7.20;;;;;;;-146.25;100.00;52631.78;2088849;28;35850;-62
2024/02/03 04:35:30;;;;;;;12.30;7.00;;;;;;;-146.25;100.00;52607.47;2089423;28;20034;-64
2024/02/03 04:36:32;;;;;;;13.20;6.93;;;;;;;-146.25;100.00;52583.13;2088746;28;37497;-64
2024/02/03 04:37:34;;;;;;;12.65;6.78;;;;;;;-146.25;100.00;52625.72;2088853;28;33494;-64
2024/02/03 04:38:36;;;;;;;13.07;7.00;;;;;;;-146.25;100.00;52587.19;2089510;28;20037;-64
2024/02/03 04:39:38;;;;;;;11.15;6.75;;;;;;;-146.25;100.00;52546.63;2088604;28;35279;-64